Terminal Aerodrome Forecast
Issued by NWS Sterling, VA

Current Version | Previous Version | Graphics & Text | Print | Product List | Glossary On
Versions: 1 2 3 4 5 6 7 8 9 10 11 12 13 14 15 16 17 18 19 20 21 22 23 24 25 26 27
511
FTUS41 KLWX 271500 AAB
TAFDCA
TAF AMD
KDCA 271500Z 2715/2812 18007KT 6SM BR SCT008 OVC015
     FM271600 21006KT P6SM BKN025
     FM271900 22009KT P6SM BKN050
     FM272300 18006KT P6SM BKN050=

USA.gov is the U.S. government's official web portal to all federal, state and local government web resources and services.